Data ze zpráv METAR

Na této stránce "Data ze zpráv METAR" si můžete prohlédnout aktuální data o počasí z českých letišť.

LKKB - Kbely, Czech Republic
Distance from station: JJZ 98km
Aktualizováno v: 12/12/2017 19:00
Jasno
Jasno
 Vítr od ZJZ
Vítr: ZJZ 26 km/h
Teplota vzduchu: 3°C
Wind Chill: -2°C
Rosný bod: -4°C
Vlhkost: 60%
Tlak vzduchu: 1013 hPa
Souhrn: Jasno
Visibility: greater than 10 km
2017/12/12 18:00 LKKB 121800Z 24014KT CAVOK 03/M04 Q1013 NOSIG
LKPR - Prague/Ruzyne, Czech Republic
Distance from station: JJZ 108km
Aktualizováno v: 12/12/2017 19:00
Jasno
Jasno
 Vítr od JZ
Vítr: JZ 20 km/h
Teplota vzduchu: 2°C
Wind Chill: -3°C
Rosný bod: -3°C
Vlhkost: 70%
Tlak vzduchu: 1012 hPa
Souhrn: Jasno
Visibility: greater than 10 km
2017/12/12 18:00 LKPR 121800Z 23011KT CAVOK 02/M03 Q1012 NOSIG
 
LKPD - Pardubice, Czech Republic
Distance from station: JJV 111km
Aktualizováno v: 12/12/2017 19:00
Zataženo
Zataženo
 Vítr od JZ
Vítr: JZ 13 km/h
Teplota vzduchu: 4°C
Wind Chill: 1°C
Rosný bod: -2°C
Vlhkost: 65%
Tlak vzduchu: 1013 hPa
Clouds: Zataženo
Visibility: 10 km
Cloud details: Oblačno 1433 m
Zataženo 3353 m
2017/12/12 18:00 LKPD 121800Z 23007KT 9999 BKN047 OVC110 04/M02 Q1013 NOSIG RMK BLU BLU
LKCV - Caslav, Czech Republic
Distance from station: JJV 113km
Aktualizováno v: 12/12/2017 19:00
Zataženo
Zataženo
 Vítr od JZ
Vítr: JZ 13 km/h
Teplota vzduchu: 3°C
Wind Chill: -1°C
Rosný bod: -3°C
Vlhkost: 65%
Tlak vzduchu: 1013 hPa
Clouds: Zataženo
Visibility: 10 km
Cloud details: Polojasno 1341 m
Zataženo 3658 m
2017/12/12 18:00 LKCV 121800Z 22007KT 9999 SCT044 OVC120 03/M03 Q1013 NOSIG RMK BLU BLU
 
LKKV - Karlovy Vary, Czech Republic
Distance from station: ZJZ 173km
Aktualizováno v: 12/12/2017 19:00
Oblačno
Oblačno
 Vítr od JZ
Vítr: JZ 13 km/h
Teplota vzduchu: 0°C
Wind Chill: -4°C
Rosný bod: -3°C
Vlhkost: 80%
Tlak vzduchu: 1011 hPa
Clouds: Oblačno
Visibility: 10 km
Cloud details: Oblačno 1097 m
2017/12/12 18:00 LKKV 121800Z 23007KT 200V280 9999 BKN036 00/M03 Q1011 R29///////
LKLN - Plzen Line, Czech Republic
Distance from station: JZ 189km
Aktualizováno v: 12/12/2017 19:00
Zataženo
Zataženo
 Vítr od varies
Vítr: varies 9 km/h
Teplota vzduchu: 3°C
Wind Chill: 0°C
Rosný bod: -2°C
Vlhkost: 70%
Tlak vzduchu: 1014 hPa
Clouds: Zataženo
Visibility: 10 km
Cloud details: Few Clouds 884 m
Zataženo 1554 m
2017/12/12 18:00 LKLN 121800Z AUTO VRB05KT 9999 FEW029 OVC051 03/M02 Q1014
 
LKNA - Namest, Czech Republic
Distance from station: JJV 209km
Aktualizováno v: 12/12/2017 19:00
Jasno
Jasno
 Vítr od Z
Vítr: Z 13 km/h
Teplota vzduchu: 2°C
Wind Chill: -1°C
Rosný bod: -3°C
Vlhkost: 70%
Tlak vzduchu: 1013 hPa
Souhrn: Jasno
Visibility: greater than 10 km
2017/12/12 18:00 LKNA 121800Z 28007KT CAVOK 02/M03 Q1013 NOSIG RMK BLU BLU
LKTB - Brno/Turany, Czech Republic
Distance from station: JJV 230km
Aktualizováno v: 12/12/2017 19:00
Few Clouds
Few Clouds
 Vítr od ZSZ
Vítr: ZSZ 13 km/h
Teplota vzduchu: 5°C
Wind Chill: 2°C
Rosný bod: -3°C
Vlhkost: 57%
Tlak vzduchu: 1014 hPa
Clouds: Few Clouds
Visibility: 10 km
Cloud details: Few Clouds 1219 m
2017/12/12 18:00 LKTB 121800Z 30007KT 9999 FEW040 05/M03 Q1014 NOSIG